Aviation Digital Data Service (ADDS)

Output produced by METARs form (2344 UTC 23 October 2019)
found at http://www.aviationweather.gov/metar/data/
 
METAR text: KGTU 232256Z 16014G20KT 10SM FEW065 28/13 A2994 RMK AO2 SLP132 T02780133
Conditions at: KGTU (GEORGETOWN , TX, US) observed 2256 UTC 23 October 2019
Temperature: 27.8°C (82°F)
Dewpoint: 13.3°C (56°F) [RH = 41%]
Pressure (altimeter): 29.94 inches Hg (1014.0 mb)
[Sea-level pressure: 1013.2 mb]
Winds: from the SSE (160 degrees) at 16 MPH (14 knots; 7.2 m/s)
gusting to 23 MPH (20 knots; 10.3 m/s)
Visibility: 10 or more miles (16+ km)
Ceiling: at least 12,000 feet AGL
Clouds: few clouds at 6500 feet AGL
Weather: no significant weather observed at this time